SBOSBO SKB / TKPK
Speedbird OnlineSpeedbird Online SKB / TKPK

Robert L. Bradshaw International Airport
10:48 26.8°C

Location Basse Terre, Saint Kitts and Nevis
Latitude: 17.311199188232422
Longitude: -62.71870040893555
Web Wikipedia
Altitude 52 Meter / 170 Feet
Distance 6,642 KM / 4,127 Miles
from London.
Time Zone UTC -4 hours (America/St_Kitts)
Codes IATA: SKB
ICAO: TKPK
Currency £1 equals XCD 3.33
Runways
RunwayLength (m)Surface
072317Asphalt
252317Asphalt
Radio
TypeDescriptionFrequency
APPAPP119.6
GNDGND121.9
TWRTWR118.3
Live ATC
METAR TKPK 311400Z 05013KT 9999 FEW018 27/21 Q1018
TAF TAF TKPK 311100Z 3112/0112 06011KT 9999 SCT020 SCT038 PROB40 TEMPO 3112/0108 SHRA BKN015
Weather As Of 31 Jan 2023 10:48
Description Few clouds
Wind 30 km/h from East (70°)
Cloud Cover 20%
Precipitation Rain: none, Snow: none
Sunrise 06:43
Sunset 18:05
Rotations During the last 90 days there were
25 flights from ANU
25 flights to ANU



Support Speedbird Online

© 2017-2023 Speedbird Online